Time;durP1;ratioP1;P1;durP2;ratioP2;P2;SDS_P1;SDS_P2;PMS_P1;PMS_P2;Temp;Humidity;BMP_temperature;BMP_pressure;BME280_temperature;BME280_humidity;BME280_pressure;Samples;Min_cycle;Max_cycle;Signal;HPM_P1;HPM_P2
2022/10/03 00:02:45;;;;;;;7.63;1.77;;;11.30;99.90;;;;;;5110616;28;20054;-76
2022/10/03 00:05:43;;;;;;;17.23;2.42;;;11.30;99.90;;;;;;4998502;28;20088;-76
2022/10/03 00:08:38;;;;;;;15.25;2.22;;;11.30;99.90;;;;;;4985078;28;20466;-76
2022/10/03 00:11:45;;;;;;;11.18;2.00;;;11.30;99.90;;;;;;5015603;28;20068;-76
2022/10/03 00:14:21;;;;;;;9.27;1.83;;;11.20;99.90;;;;;;4993676;28;20532;-76
2022/10/03 00:17:12;;;;;;;13.50;1.88;;;11.20;99.90;;;;;;4988383;28;20557;-76
2022/10/03 00:20:02;;;;;;;10.57;1.70;;;11.20;99.90;;;;;;5004212;28;20097;-76
2022/10/03 00:22:55;;;;;;;9.45;1.50;;;11.20;99.90;;;;;;5007551;28;20100;-76
2022/10/03 00:25:29;;;;;;;9.38;1.92;;;11.20;99.90;;;;;;4995416;28;20074;-76
2022/10/03 00:28:15;;;;;;;12.40;1.90;;;11.20;99.90;;;;;;4993508;28;20117;-76
2022/10/03 00:31:11;;;;;;;7.93;1.70;;;11.10;99.90;;;;;;5006700;28;20041;-76
2022/10/03 00:33:45;;;;;;;9.63;1.90;;;11.10;99.90;;;;;;4998564;28;20450;-76
2022/10/03 00:36:30;;;;;;;11.68;2.00;;;11.10;99.90;;;;;;5004205;28;20034;-76
2022/10/03 00:39:26;;;;;;;12.25;2.05;;;11.10;99.90;;;;;;4988409;28;20118;-76
2022/10/03 00:42:18;;;;;;;7.57;1.80;;;11.10;99.90;;;;;;5091396;28;20539;-76
2022/10/03 00:44:44;;;;;;;13.60;1.90;;;11.10;99.90;;;;;;5110451;28;20051;-76
2022/10/03 00:47:31;;;;;;;9.68;1.92;;;11.00;99.90;;;;;;5110399;28;20040;-76
2022/10/03 00:50:16;;;;;;;12.50;1.90;;;11.00;99.90;;;;;;5110353;28;20028;-76
2022/10/03 00:53:09;;;;;;;7.22;1.98;;;11.00;99.90;;;;;;5105864;28;20384;-76
2022/10/03 00:55:53;;;;;;;11.57;1.90;;;11.00;99.90;;;;;;5090258;28;20020;-76
2022/10/03 00:58:28;;;;;;;10.90;1.98;;;11.00;99.90;;;;;;5110929;28;20384;-76
2022/10/03 01:01:17;;;;;;;12.45;1.83;;;11.00;99.90;;;;;;5093749;28;20383;-76
2022/10/03 01:04:12;;;;;;;10.95;1.90;;;10.90;99.90;;;;;;5083156;28;20040;-76
2022/10/03 01:07:09;;;;;;;8.95;1.50;;;10.90;99.90;;;;;;5110681;28;20436;-76
2022/10/03 01:10:08;;;;;;;9.15;1.40;;;10.90;99.90;;;;;;5109054;28;20085;-76
2022/10/03 01:12:54;;;;;;;11.30;2.00;;;10.90;99.90;;;;;;5100134;28;20024;-75
2022/10/03 01:15:54;;;;;;;7.53;1.45;;;10.90;99.90;;;;;;5096926;28;20268;-75
2022/10/03 01:18:32;;;;;;;12.95;2.10;;;10.90;99.90;;;;;;5100620;28;20024;-76
2022/10/03 01:21:30;;;;;;;8.40;2.28;;;10.90;99.90;;;;;;5104870;28;20576;-76
2022/10/03 01:24:14;;;;;;;10.60;1.70;;;10.90;99.90;;;;;;5107696;28;20024;-76
2022/10/03 01:26:57;;;;;;;10.10;1.73;;;10.90;99.90;;;;;;5113733;28;20027;-76
2022/10/03 01:30:26;;;;;;;8.00;1.67;;;10.90;99.90;;;;;;5104013;28;20387;-75
2022/10/03 01:32:39;;;;;;;5.80;1.60;;;10.80;99.90;;;;;;5081734;28;20036;-76
2022/10/03 01:35:35;;;;;;;7.53;1.70;;;10.80;99.90;;;;;;5113207;28;20024;-76
2022/10/03 01:38:07;;;;;;;;;;;10.80;99.90;;;;;;5114539;28;20412;-76
2022/10/03 01:40:53;;;;;;;13.45;1.98;;;10.70;99.90;;;;;;5113082;28;19954;-75
2022/10/03 01:43:33;;;;;;;10.20;1.92;;;10.80;99.90;;;;;;5113547;28;20020;-76
2022/10/03 01:46:16;;;;;;;12.40;2.30;;;10.80;99.90;;;;;;5092603;28;20064;-76
2022/10/03 01:48:51;;;;;;;11.10;1.90;;;10.80;99.90;;;;;;5106962;28;20019;-76
2022/10/03 01:51:32;;;;;;;;;;;10.80;99.90;;;;;;5100647;28;20019;-76
2022/10/03 01:54:15;;;;;;;10.00;1.67;;;10.90;99.90;;;;;;5112753;28;19912;-76
2022/10/03 01:56:59;;;;;;;10.77;1.88;;;10.90;99.90;;;;;;5104013;28;20027;-76
2022/10/03 01:59:41;;;;;;;8.27;1.60;;;10.80;99.90;;;;;;5110912;28;20123;-75
2022/10/03 02:02:19;;;;;;;12.57;1.88;;;10.90;99.90;;;;;;5107840;28;20028;-76
2022/10/03 02:04:52;;;;;;;11.18;1.83;;;10.90;99.90;;;;;;5099347;28;20027;-76
2022/10/03 02:07:20;;;;;;;9.98;2.00;;;10.80;99.90;;;;;;5112991;28;20031;-76
2022/10/03 02:10:09;;;;;;;13.40;2.30;;;10.90;99.90;;;;;;5112891;28;20019;-76
2022/10/03 02:12:44;;;;;;;11.68;1.90;;;10.80;99.90;;;;;;5109221;28;20475;-76
2022/10/03 02:15:23;;;;;;;11.50;2.10;;;10.80;99.90;;;;;;5113141;28;20023;-76
2022/10/03 02:18:11;;;;;;;8.07;2.00;;;10.80;99.90;;;;;;5097203;28;20034;-76
2022/10/03 02:20:58;;;;;;;11.13;1.92;;;10.80;99.90;;;;;;5105521;28;20097;-76
2022/10/03 02:23:30;;;;;;;10.40;2.00;;;10.80;99.90;;;;;;5099705;28;20387;-76
2022/10/03 02:26:14;;;;;;;12.23;1.90;;;10.80;99.90;;;;;;5112021;28;20031;-76
2022/10/03 02:28:54;;;;;;;7.32;1.70;;;10.80;99.90;;;;;;5100790;28;20479;-76
2022/10/03 02:31:55;;;;;;;10.75;2.30;;;10.80;99.90;;;;;;5112090;28;20476;-76
2022/10/03 02:34:35;;;;;;;13.82;2.22;;;10.80;99.90;;;;;;5112561;28;20020;-76
2022/10/03 02:37:19;;;;;;;10.70;1.90;;;10.80;99.90;;;;;;5098800;28;20472;-76
2022/10/03 02:40:22;;;;;;;8.38;1.95;;;10.70;99.90;;;;;;5111997;28;20070;-75
2022/10/03 02:43:31;;;;;;;8.25;1.70;;;10.70;99.90;;;;;;5112617;28;20034;-76
2022/10/03 02:46:03;;;;;;;7.07;2.10;;;10.70;99.90;;;;;;5103414;28;20048;-75
2022/10/03 02:48:41;;;;;;;10.50;2.30;;;10.70;99.90;;;;;;5106850;28;20019;-75
2022/10/03 02:51:35;;;;;;;8.18;2.05;;;10.60;99.90;;;;;;5101626;28;20088;-75
2022/10/03 02:54:25;;;;;;;13.35;2.00;;;10.60;99.90;;;;;;5108646;28;20434;-75
2022/10/03 02:57:15;;;;;;;9.60;1.50;;;10.60;99.90;;;;;;5097553;28;20027;-75
2022/10/03 03:00:05;;;;;;;8.50;1.90;;;10.60;99.90;;;;;;5103302;28;20099;-75
2022/10/03 03:02:44;;;;;;;8.68;1.70;;;10.50;99.90;;;;;;5098462;28;20015;-76
2022/10/03 03:05:34;;;;;;;8.93;1.40;;;10.50;99.90;;;;;;5111759;28;20024;-76
2022/10/03 03:08:02;;;;;;;5.38;1.77;;;10.50;99.90;;;;;;5101110;28;20020;-76
2022/10/03 03:10:46;;;;;;;7.80;1.80;;;10.40;99.90;;;;;;5111284;28;20032;-76
2022/10/03 03:13:14;;;;;;;10.18;1.83;;;10.40;99.90;;;;;;5101754;28;20020;-76
2022/10/03 03:16:20;;;;;;;6.60;1.50;;;10.40;99.90;;;;;;5105322;28;20091;-76
2022/10/03 03:19:19;;;;;;;9.63;2.38;;;10.40;99.90;;;;;;5100334;28;20429;-76
2022/10/03 03:21:44;;;;;;;13.88;2.38;;;10.40;99.90;;;;;;5105910;28;20016;-76
2022/10/03 03:24:24;;;;;;;7.95;2.10;;;10.30;99.90;;;;;;5102961;28;20076;-76
2022/10/03 03:27:08;;;;;;;8.73;2.13;;;10.40;99.90;;;;;;5110893;28;20023;-75
2022/10/03 03:29:49;;;;;;;7.30;1.70;;;10.30;99.90;;;;;;5111351;28;20491;-75
2022/10/03 03:32:36;;;;;;;12.90;2.15;;;10.30;99.90;;;;;;5098967;28;20015;-75
2022/10/03 03:35:17;;;;;;;10.02;2.20;;;10.40;99.90;;;;;;5096553;28;20027;-75
2022/10/03 03:38:02;;;;;;;11.88;2.38;;;10.30;99.90;;;;;;5111006;28;20019;-76
2022/10/03 03:40:38;;;;;;;13.20;2.60;;;10.40;99.90;;;;;;5111075;28;20028;-75
2022/10/03 03:43:09;;;;;;;11.80;2.60;;;10.40;99.90;;;;;;5110775;28;20034;-75
2022/10/03 03:45:57;;;;;;;11.10;2.47;;;10.50;99.90;;;;;;5107531;28;20046;-76
2022/10/03 03:49:07;;;;;;;14.20;2.58;;;10.50;99.90;;;;;;5104858;28;20464;-76
2022/10/03 03:51:45;;;;;;;18.85;2.78;;;10.60;99.90;;;;;;5079024;28;20149;-75
2022/10/03 03:54:33;;;;;;;16.98;2.90;;;10.60;99.90;;;;;;5108263;28;20011;-76
2022/10/03 03:57:24;;;;;;;9.48;2.30;;;10.70;99.90;;;;;;5107564;28;20499;-75
2022/10/03 04:00:03;;;;;;;13.68;2.70;;;10.70;99.90;;;;;;5098975;28;20020;-75
2022/10/03 04:02:41;;;;;;;14.07;2.70;;;10.80;99.90;;;;;;5096280;28;20028;-75
2022/10/03 04:05:27;;;;;;;10.05;2.45;;;10.80;99.90;;;;;;5110811;28;20061;-75
2022/10/03 04:08:10;;;;;;;10.98;2.70;;;10.90;99.90;;;;;;5096744;28;20020;-75
2022/10/03 04:10:52;;;;;;;8.80;2.60;;;10.90;99.90;;;;;;5111271;28;20032;-75
2022/10/03 04:13:45;;;;;;;8.90;2.50;;;11.00;99.90;;;;;;5110570;28;20031;-75
2022/10/03 04:19:38;;;;;;;5.65;2.20;;;11.10;99.90;;;;;;5110489;28;20061;-75
2022/10/03 04:22:45;;;;;;;15.25;2.58;;;11.10;99.90;;;;;;5098457;28;20019;-75
2022/10/03 04:25:23;;;;;;;11.32;2.88;;;11.10;99.90;;;;;;5078790;28;20515;-75
2022/10/03 04:27:51;;;;;;;10.60;2.67;;;11.20;99.90;;;;;;5110248;28;20039;-74
2022/10/03 04:30:28;;;;;;;10.43;2.22;;;11.20;99.90;;;;;;5109869;28;20023;-75
2022/10/03 04:33:15;;;;;;;11.55;2.20;;;11.20;99.90;;;;;;5111390;28;20023;-75
2022/10/03 04:35:50;;;;;;;8.70;2.80;;;11.20;99.90;;;;;;5098323;28;20032;-75
2022/10/03 04:38:49;;;;;;;14.25;2.53;;;11.20;99.90;;;;;;5110090;28;20020;-74
2022/10/03 04:41:46;;;;;;;11.07;2.45;;;11.30;99.90;;;;;;5110685;28;20032;-75
2022/10/03 04:44:44;;;;;;;15.05;3.38;;;11.30;99.90;;;;;;5097876;28;20499;-75
2022/10/03 04:47:30;;;;;;;9.30;2.13;;;11.30;99.90;;;;;;5110030;28;20032;-75
2022/10/03 04:50:13;;;;;;;12.10;2.70;;;11.30;99.90;;;;;;5099093;28;20268;-74
2022/10/03 04:52:47;;;;;;;13.40;3.08;;;11.20;99.90;;;;;;5098671;28;20044;-74
2022/10/03 04:55:23;;;;;;;11.95;2.67;;;11.20;99.90;;;;;;5093239;28;20074;-74
2022/10/03 04:58:24;;;;;;;9.35;2.50;;;11.20;99.90;;;;;;5094360;28;20361;-73
2022/10/03 05:01:08;;;;;;;6.95;2.20;;;11.20;99.90;;;;;;5098885;28;20028;-73
2022/10/03 05:03:42;;;;;;;12.30;2.70;;;11.20;99.90;;;;;;5106637;28;20510;-74
2022/10/03 05:06:29;;;;;;;13.93;2.50;;;11.20;99.90;;;;;;5107499;28;20042;-74
2022/10/03 05:09:15;;;;;;;7.95;2.17;;;11.20;99.90;;;;;;5111226;28;20519;-74
2022/10/03 05:12:05;;;;;;;8.23;2.55;;;11.10;99.90;;;;;;5089653;28;20538;-74
2022/10/03 05:14:56;;;;;;;11.38;2.70;;;11.10;99.90;;;;;;5108365;28;20606;-74
2022/10/03 05:18:03;;;;;;;8.32;2.45;;;11.10;99.90;;;;;;5111076;28;20027;-76
2022/10/03 05:20:51;;;;;;;9.88;2.58;;;11.10;99.90;;;;;;5111346;28;20106;-74
2022/10/03 05:23:30;;;;;;;7.82;2.30;;;11.10;99.90;;;;;;5093728;28;20050;-74
2022/10/03 05:26:05;;;;;;;10.73;2.38;;;11.10;99.90;;;;;;5112610;28;20503;-74
2022/10/03 05:28:49;;;;;;;;;;;11.10;99.90;;;;;;5112140;28;20511;-74
2022/10/03 05:31:33;;;;;;;6.13;2.17;;;11.00;99.90;;;;;;5109534;28;20311;-74
2022/10/03 05:34:22;;;;;;;11.40;2.40;;;11.00;99.90;;;;;;5107762;28;20015;-74
2022/10/03 05:37:25;;;;;;;12.10;2.40;;;10.90;99.90;;;;;;5106190;28;20024;-74
2022/10/03 05:40:02;;;;;;;8.20;2.45;;;10.90;99.90;;;;;;5095268;28;20069;-74
2022/10/03 05:42:54;;;;;;;7.80;2.15;;;10.90;99.90;;;;;;5093155;28;20035;-73
2022/10/03 05:45:47;;;;;;;9.98;2.30;;;10.90;99.90;;;;;;5104363;28;20090;-74
2022/10/03 05:48:37;;;;;;;8.88;2.25;;;10.80;99.90;;;;;;5100092;28;20032;-73
2022/10/03 05:51:38;;;;;;;7.13;2.45;;;10.80;99.90;;;;;;5085843;28;20028;-74
2022/10/03 05:54:36;;;;;;;8.35;2.50;;;10.80;99.90;;;;;;5097145;28;20015;-74
2022/10/03 05:57:22;;;;;;;7.57;2.50;;;10.80;99.90;;;;;;5062924;28;20081;-75
2022/10/03 06:00:07;;;;;;;13.50;3.42;;;10.80;99.90;;;;;;5095456;28;20570;-75
2022/10/03 06:02:39;;;;;;;10.10;3.67;;;10.70;99.90;;;;;;5093702;28;20514;-74
2022/10/03 06:05:42;;;;;;;10.52;3.47;;;10.70;99.90;;;;;;5092851;28;20514;-75
2022/10/03 06:08:26;;;;;;;9.85;3.17;;;10.70;99.90;;;;;;5092272;28;20039;-74
2022/10/03 06:11:11;;;;;;;11.27;3.33;;;10.70;99.90;;;;;;5092554;28;20020;-75
2022/10/03 06:14:17;;;;;;;13.13;3.35;;;10.70;99.90;;;;;;5090342;28;20051;-75
2022/10/03 06:17:14;;;;;;;9.27;3.03;;;10.70;99.90;;;;;;5095767;28;20020;-75
2022/10/03 06:19:49;;;;;;;13.10;3.42;;;10.70;99.90;;;;;;5091072;28;20016;-74
2022/10/03 06:22:29;;;;;;;14.10;3.20;;;10.80;99.90;;;;;;5092620;28;20026;-75
2022/10/03 06:25:11;;;;;;;13.02;3.35;;;10.80;99.90;;;;;;5089435;28;20119;-74
2022/10/03 06:28:01;;;;;;;8.23;3.05;;;10.80;99.90;;;;;;5103066;28;20122;-75
2022/10/03 06:30:32;;;;;;;10.55;3.10;;;10.90;99.90;;;;;;5100088;28;20015;-74
2022/10/03 06:33:04;;;;;;;10.95;2.88;;;10.90;99.90;;;;;;5113239;28;20781;-75
2022/10/03 06:35:42;;;;;;;12.55;3.17;;;10.90;99.90;;;;;;5113730;28;20030;-75
2022/10/03 06:38:23;;;;;;;10.93;3.17;;;11.00;99.90;;;;;;5111810;28;20633;-75
2022/10/03 06:41:01;;;;;;;13.05;3.25;;;11.00;99.90;;;;;;5091400;28;20028;-74
2022/10/03 06:44:01;;;;;;;10.13;3.10;;;11.10;99.90;;;;;;5099887;28;20036;-75
2022/10/03 06:46:54;;;;;;;8.23;2.83;;;11.20;99.90;;;;;;5090935;28;20048;-75
2022/10/03 06:49:55;;;;;;;12.23;3.20;;;11.20;99.90;;;;;;5099328;28;20625;-75
2022/10/03 06:52:40;;;;;;;10.38;3.22;;;11.30;99.90;;;;;;5088382;28;20089;-75
2022/10/03 06:55:52;;;;;;;10.07;3.03;;;11.40;99.90;;;;;;5107391;28;20050;-75
2022/10/03 06:58:48;;;;;;;12.98;3.00;;;11.50;99.90;;;;;;5099467;28;20024;-75
2022/10/03 07:01:29;;;;;;;13.45;3.92;;;11.50;99.90;;;;;;5091947;28;20031;-75
2022/10/03 07:04:13;;;;;;;12.13;3.90;;;11.60;99.90;;;;;;5096474;28;20068;-75
2022/10/03 07:07:06;;;;;;;13.18;4.03;;;11.70;99.90;;;;;;5100635;28;20552;-75
2022/10/03 07:10:02;;;;;;;12.70;4.05;;;11.80;99.90;;;;;;5101731;28;20036;-75
2022/10/03 07:12:36;;;;;;;14.88;4.35;;;11.80;99.90;;;;;;5094090;28;20036;-75
2022/10/03 07:15:21;;;;;;;18.42;4.45;;;11.90;99.90;;;;;;5091341;28;20091;-74
2022/10/03 07:18:05;;;;;;;14.82;4.88;;;12.00;99.90;;;;;;5091458;28;20031;-75
2022/10/03 07:21:03;;;;;;;17.90;5.28;;;12.10;99.90;;;;;;5100446;28;20023;-74
2022/10/03 07:23:40;;;;;;;17.10;5.38;;;12.20;99.90;;;;;;5109977;28;20028;-75
2022/10/03 07:26:21;;;;;;;14.20;5.18;;;12.20;99.90;;;;;;5104700;28;20023;-75
2022/10/03 07:28:52;;;;;;;14.80;5.25;;;12.30;99.90;;;;;;5098319;28;20106;-75
2022/10/03 07:31:39;;;;;;;17.05;5.32;;;12.40;99.90;;;;;;5086995;28;20028;-75
2022/10/03 07:34:28;;;;;;;13.43;4.70;;;12.40;99.90;;;;;;5093412;28;20036;-75
2022/10/03 07:40:15;;;;;;;17.05;5.47;;;12.60;99.90;;;;;;5096992;28;20057;-73
2022/10/03 07:43:05;;;;;;;14.33;5.20;;;12.70;99.90;;;;;;5095034;28;20019;-73
2022/10/03 07:45:40;;;;;;;17.33;6.13;;;12.80;99.90;;;;;;5096339;28;20059;-73
2022/10/03 07:48:47;;;;;;;18.60;6.15;;;12.80;99.90;;;;;;5090527;28;20480;-73
2022/10/03 07:51:34;;;;;;;;;;;12.90;99.90;;;;;;5008715;28;20022;-74
2022/10/03 07:54:18;;;;;;;;;;;13.00;99.90;;;;;;5008654;28;19951;-74
2022/10/03 07:57:08;;;;;;;20.90;5.93;;;13.00;99.90;;;;;;5008152;28;20000;-74
2022/10/03 08:00:04;;;;;;;21.52;6.25;;;13.20;99.90;;;;;;5008388;28;20076;-74
2022/10/03 08:03:08;;;;;;;16.65;6.00;;;13.30;99.90;;;;;;5008036;28;20141;-74
2022/10/03 08:05:36;;;;;;;18.27;5.82;;;13.40;99.90;;;;;;5007706;28;20561;-74
2022/10/03 08:08:32;;;;;;;19.02;5.70;;;13.50;99.90;;;;;;5001812;28;20033;-74
2022/10/03 08:11:09;;;;;;;16.48;6.20;;;13.50;99.90;;;;;;5007717;28;20053;-74
2022/10/03 08:13:43;;;;;;;16.17;6.10;;;13.60;99.90;;;;;;5008170;28;20030;-74
2022/10/03 08:16:45;;;;;;;17.80;6.13;;;13.70;99.90;;;;;;5007942;28;20033;-74
2022/10/03 08:19:48;;;;;;;16.52;6.68;;;13.70;99.90;;;;;;5007989;28;20445;-74
2022/10/03 08:22:32;;;;;;;23.02;6.60;;;13.90;99.90;;;;;;5003873;28;20041;-74
2022/10/03 08:25:09;;;;;;;23.77;6.80;;;14.00;99.90;;;;;;5044513;28;20035;-73
2022/10/03 08:28:14;;;;;;;18.27;6.53;;;14.10;99.90;;;;;;5110427;28;20039;-74
2022/10/03 08:31:01;;;;;;;18.10;5.75;;;14.40;99.90;;;;;;5110789;28;20024;-74
2022/10/03 08:34:00;;;;;;;18.35;5.78;;;14.60;99.90;;;;;;5110616;28;20028;-73
2022/10/03 08:37:03;;;;;;;19.05;5.60;;;14.70;99.90;;;;;;5110602;28;20027;-74
2022/10/03 08:40:06;;;;;;;18.88;6.05;;;14.90;99.90;;;;;;5110558;28;20032;-74
2022/10/03 08:43:04;;;;;;;17.60;5.40;;;15.10;99.90;;;;;;5098582;28;20496;-74
2022/10/03 08:45:57;;;;;;;19.67;4.97;;;15.20;99.90;;;;;;5110323;28;20051;-73
2022/10/03 08:48:54;;;;;;;18.55;5.38;;;15.30;99.90;;;;;;5110233;28;20028;-74
2022/10/03 08:51:39;;;;;;;17.15;5.03;;;15.40;99.90;;;;;;5110498;28;20028;-74
2022/10/03 08:54:34;;;;;;;22.83;5.50;;;15.40;99.90;;;;;;5110352;28;20026;-74
2022/10/03 08:57:20;;;;;;;16.33;4.57;;;15.40;99.90;;;;;;5067380;28;20036;-73
2022/10/03 09:00:04;;;;;;;19.50;4.63;;;15.40;99.90;;;;;;5109988;28;20036;-74
2022/10/03 09:02:50;;;;;;;21.48;4.75;;;15.50;99.90;;;;;;5109919;28;20543;-73
2022/10/03 09:05:36;;;;;;;17.05;4.38;;;15.50;99.90;;;;;;5095287;28;20024;-74
2022/10/03 09:08:22;;;;;;;17.17;4.13;;;15.60;99.90;;;;;;5098060;28;20036;-74
2022/10/03 09:11:28;;;;;;;18.77;4.78;;;15.70;99.90;;;;;;5110129;28;20020;-73
2022/10/03 09:14:18;;;;;;;14.82;3.75;;;15.70;99.90;;;;;;5110017;28;20019;-74
2022/10/03 09:17:10;;;;;;;15.93;4.10;;;15.70;99.90;;;;;;5110082;28;20067;-74
2022/10/03 09:19:54;;;;;;;13.48;4.20;;;15.80;99.90;;;;;;5109483;28;20433;-74
2022/10/03 09:22:44;;;;;;;15.35;4.00;;;15.80;99.90;;;;;;5110381;28;20019;-74
2022/10/03 09:25:39;;;;;;;22.58;4.63;;;15.80;99.90;;;;;;5110236;28;20494;-73
2022/10/03 09:28:27;;;;;;;18.20;4.45;;;15.80;99.90;;;;;;5106052;28;20067;-74
2022/10/03 09:30:53;;;;;;;19.80;4.82;;;15.80;99.90;;;;;;5094414;28;20039;-74
2022/10/03 09:33:29;;;;;;;15.35;4.28;;;15.90;99.90;;;;;;5099161;28;20028;-73
2022/10/03 09:36:13;;;;;;;17.25;4.28;;;15.90;99.90;;;;;;5106714;28;20015;-73
2022/10/03 09:39:02;;;;;;;11.45;3.80;;;15.90;99.90;;;;;;5104475;28;20511;-73
2022/10/03 09:41:51;;;;;;;23.45;5.10;;;15.90;99.90;;;;;;5099803;28;20073;-73
2022/10/03 09:44:34;;;;;;;19.15;4.60;;;15.90;99.90;;;;;;5099228;28;20073;-74
2022/10/03 09:47:38;;;;;;;15.32;3.97;;;15.90;99.90;;;;;;5108437;28;20032;-74
2022/10/03 09:50:22;;;;;;;14.63;3.58;;;16.00;99.90;;;;;;5102589;28;20032;-73
2022/10/03 09:53:19;;;;;;;12.98;3.15;;;16.00;99.90;;;;;;5097473;28;20093;-73
2022/10/03 09:56:03;;;;;;;17.27;3.78;;;16.00;99.90;;;;;;5092859;28;20035;-73
2022/10/03 09:58:31;;;;;;;18.92;3.38;;;16.00;99.90;;;;;;5092855;28;20027;-74
2022/10/03 10:01:12;;;;;;;16.08;3.50;;;16.10;99.90;;;;;;5097651;28;20077;-73
2022/10/03 10:04:04;;;;;;;15.20;3.35;;;16.10;99.90;;;;;;5098156;28;20016;-74
2022/10/03 10:07:02;;;;;;;15.77;3.70;;;16.20;99.90;;;;;;5078921;28;20428;-74
2022/10/03 10:09:45;;;;;;;14.32;3.47;;;16.20;99.90;;;;;;5000778;28;20474;-73
2022/10/03 10:12:29;;;;;;;14.95;3.30;;;16.20;99.90;;;;;;5010050;28;20502;-74
2022/10/03 10:15:00;;;;;;;18.33;3.63;;;16.20;99.90;;;;;;5003670;28;20533;-73
2022/10/03 10:17:31;;;;;;;16.25;3.33;;;16.20;99.90;;;;;;5010068;28;20445;-73
2022/10/03 10:20:21;;;;;;;15.80;3.42;;;16.20;99.90;;;;;;5006630;28;20046;-73
2022/10/03 10:23:18;;;;;;;12.77;3.63;;;16.20;99.90;;;;;;5000386;28;20031;-74
2022/10/03 10:26:17;;;;;;;24.15;3.83;;;16.30;99.90;;;;;;4993284;28;20102;-73
2022/10/03 10:29:08;;;;;;;21.05;3.85;;;16.30;99.90;;;;;;4996734;28;20037;-73
2022/10/03 10:31:33;;;;;;;14.60;3.67;;;16.30;99.90;;;;;;5009703;28;20041;-73
2022/10/03 10:34:18;;;;;;;15.85;3.80;;;16.20;99.90;;;;;;5009691;28;20038;-73
2022/10/03 10:36:43;;;;;;;17.20;3.25;;;16.30;99.90;;;;;;5009581;28;20072;-74
2022/10/03 10:39:38;;;;;;;15.57;3.50;;;16.30;99.90;;;;;;5000160;28;20548;-73
2022/10/03 10:42:36;;;;;;;20.95;3.60;;;16.30;99.90;;;;;;4998570;28;20033;-73
2022/10/03 10:45:31;;;;;;;11.48;2.88;;;16.30;99.90;;;;;;5006510;28;20046;-75
2022/10/03 10:48:02;;;;;;;13.32;3.10;;;16.20;99.90;;;;;;5103327;28;20103;-74
2022/10/03 10:50:52;;;;;;;19.35;3.28;;;16.20;99.90;;;;;;5111997;28;20026;-74
2022/10/03 10:53:55;;;;;;;11.75;2.97;;;16.10;99.90;;;;;;5111929;28;20060;-74
2022/10/03 10:56:51;;;;;;;12.70;3.00;;;16.10;99.90;;;;;;5100315;28;20063;-74
2022/10/03 10:59:54;;;;;;;17.60;3.38;;;16.10;99.90;;;;;;5103896;28;20032;-74
2022/10/03 11:03:12;;;;;;;12.85;3.03;;;16.00;99.90;;;;;;5102567;28;20419;-74
2022/10/03 11:06:16;;;;;;;13.63;3.08;;;16.00;99.90;;;;;;5095860;28;20030;-74
2022/10/03 11:08:49;;;;;;;18.60;2.88;;;16.00;99.90;;;;;;5094198;28;20476;-73
2022/10/03 11:11:40;;;;;;;17.45;3.17;;;16.00;99.90;;;;;;5096102;28;20028;-74
2022/10/03 11:14:52;;;;;;;20.25;3.15;;;16.00;99.90;;;;;;5091380;28;20020;-73
2022/10/03 11:17:49;;;;;;;15.73;3.50;;;16.00;99.90;;;;;;5091236;28;20383;-74
2022/10/03 11:20:23;;;;;;;14.30;3.00;;;16.00;99.90;;;;;;5101013;28;20031;-73
2022/10/03 11:23:08;;;;;;;11.32;3.58;;;16.00;99.90;;;;;;5111857;28;20084;-74
2022/10/03 11:26:17;;;;;;;19.33;3.50;;;15.90;99.90;;;;;;5111654;28;20081;-74
2022/10/03 11:29:19;;;;;;;17.70;3.75;;;16.00;99.90;;;;;;5100350;28;20058;-73
2022/10/03 11:32:08;;;;;;;13.25;2.97;;;16.00;99.90;;;;;;5109894;28;20387;-74
2022/10/03 11:34:43;;;;;;;13.50;3.28;;;16.00;99.90;;;;;;5098374;28;20040;-73
2022/10/03 11:37:46;;;;;;;16.15;3.08;;;15.90;99.90;;;;;;5078869;28;20605;-74
2022/10/03 11:40:40;;;;;;;14.60;3.28;;;15.90;99.90;;;;;;5081817;28;20056;-73
2022/10/03 11:43:36;;;;;;;17.10;3.50;;;15.90;99.90;;;;;;5085884;28;20038;-73
2022/10/03 11:46:20;;;;;;;16.85;3.42;;;15.90;99.90;;;;;;5094010;28;20120;-73
2022/10/03 11:48:53;;;;;;;13.05;3.30;;;15.90;99.90;;;;;;5091142;28;20131;-74
2022/10/03 11:51:36;;;;;;;13.63;3.40;;;15.90;99.90;;;;;;5075463;28;20054;-74
2022/10/03 11:54:07;;;;;;;15.60;3.05;;;15.90;99.90;;;;;;5093715;28;20443;-74
2022/10/03 11:56:44;;;;;;;15.55;3.47;;;15.90;99.90;;;;;;5101114;28;20019;-74
2022/10/03 11:59:31;;;;;;;15.48;3.30;;;15.90;99.90;;;;;;5091578;28;20442;-74
2022/10/03 12:02:23;;;;;;;13.48;4.00;;;15.90;99.90;;;;;;5092544;28;20098;-74
2022/10/03 12:05:14;;;;;;;17.80;3.35;;;15.90;99.90;;;;;;5090451;28;20028;-74
2022/10/03 12:11:12;;;;;;;16.73;3.47;;;15.90;99.90;;;;;;5088736;28;20039;-74
2022/10/03 12:14:02;;;;;;;17.65;3.50;;;15.90;99.90;;;;;;5076870;28;20028;-75
2022/10/03 12:16:35;;;;;;;19.65;3.70;;;15.90;99.90;;;;;;5096962;28;20039;-74
2022/10/03 12:19:21;;;;;;;16.98;3.65;;;15.80;99.90;;;;;;5093453;28;20070;-75
2022/10/03 12:22:02;;;;;;;17.52;3.58;;;15.90;99.90;;;;;;5110129;28;20023;-74
2022/10/03 12:24:35;;;;;;;15.18;2.83;;;15.90;99.90;;;;;;5110567;28;20102;-74
2022/10/03 12:27:19;;;;;;;18.55;3.90;;;15.90;99.90;;;;;;5104181;28;20051;-74
2022/10/03 12:29:57;;;;;;;17.88;3.40;;;15.90;99.90;;;;;;5110838;28;20031;-75
2022/10/03 12:32:31;;;;;;;13.73;3.65;;;16.00;99.90;;;;;;5110768;28;20434;-75
2022/10/03 12:35:06;;;;;;;14.73;3.40;;;16.00;99.90;;;;;;5100821;28;20028;-74
2022/10/03 12:37:39;;;;;;;17.27;3.47;;;16.10;99.90;;;;;;5111130;28;20264;-74
2022/10/03 12:40:14;;;;;;;16.73;3.33;;;16.10;99.90;;;;;;5106710;28;20031;-74
2022/10/03 12:43:03;;;;;;;14.85;3.30;;;16.20;99.90;;;;;;5105707;28;20039;-74
2022/10/03 12:46:00;;;;;;;15.77;3.70;;;16.20;99.90;;;;;;5091186;28;20087;-74
2022/10/03 12:48:39;;;;;;;14.00;3.53;;;16.20;99.90;;;;;;5097339;28;20035;-74
2022/10/03 12:51:19;;;;;;;19.10;3.60;;;16.30;99.90;;;;;;5104080;28;20115;-74
2022/10/03 12:53:55;;;;;;;18.08;3.13;;;16.30;99.90;;;;;;5089980;28;20020;-75
2022/10/03 12:56:34;;;;;;;15.98;3.40;;;16.30;99.90;;;;;;5096299;28;20024;-75
2022/10/03 12:59:27;;;;;;;17.83;3.35;;;16.30;99.90;;;;;;5101302;28;20111;-75
2022/10/03 13:02:02;;;;;;;18.90;3.65;;;16.40;99.90;;;;;;5104027;28;20107;-74
2022/10/03 13:04:33;;;;;;;16.88;3.58;;;16.40;99.90;;;;;;5108008;28;20430;-74
2022/10/03 13:07:27;;;;;;;15.75;3.45;;;16.40;99.90;;;;;;5101540;28;20024;-74
2022/10/03 13:10:17;;;;;;;17.88;3.78;;;16.50;99.90;;;;;;5093311;28;20028;-74
2022/10/03 13:12:48;;;;;;;20.55;3.67;;;16.50;99.90;;;;;;5078001;28;20028;-74
2022/10/03 13:15:53;;;;;;;15.65;3.65;;;16.50;99.90;;;;;;5106078;28;20514;-74
2022/10/03 13:18:37;;;;;;;17.33;3.80;;;16.60;99.90;;;;;;5100689;28;20033;-75
2022/10/03 13:21:16;;;;;;;17.42;4.20;;;16.60;99.90;;;;;;5109616;28;20032;-75
2022/10/03 13:23:47;;;;;;;19.20;3.47;;;16.60;99.90;;;;;;5112503;27;20020;-75
2022/10/03 13:26:38;;;;;;;14.07;3.58;;;16.60;99.90;;;;;;5115508;27;20024;-75
2022/10/03 13:29:12;;;;;;;19.17;3.53;;;16.70;99.90;;;;;;5113804;28;20095;-75
2022/10/03 13:32:07;;;;;;;12.20;3.17;;;16.70;99.90;;;;;;5113570;28;20023;-75
2022/10/03 13:35:57;;;;;;;13.07;3.53;;;16.80;99.90;;;;;;5113396;28;20072;-73
2022/10/03 13:38:15;;;;;;;19.17;3.45;;;16.80;99.90;;;;;;5008635;28;20054;-74
2022/10/03 13:40:45;;;;;;;;;;;16.90;99.90;;;;;;5005440;28;20534;-74
2022/10/03 13:43:15;;;;;;;15.05;3.35;;;16.90;99.90;;;;;;5006887;28;19914;-74
2022/10/03 13:45:46;;;;;;;16.65;3.67;;;17.00;99.90;;;;;;5006561;28;20056;-74
2022/10/03 13:48:20;;;;;;;20.70;3.97;;;17.00;99.90;;;;;;5008600;28;20137;-74
2022/10/03 13:51:00;;;;;;;12.38;3.10;;;17.00;99.90;;;;;;5008080;28;20069;-74
2022/10/03 13:53:58;;;;;;;15.20;3.17;;;17.00;99.90;;;;;;5009532;28;20598;-74
2022/10/03 13:56:47;;;;;;;14.73;3.33;;;17.10;99.90;;;;;;4992890;28;20685;-74
2022/10/03 13:59:31;;;;;;;17.45;3.50;;;17.10;99.90;;;;;;5010275;28;20093;-74
2022/10/03 14:02:26;;;;;;;14.48;3.28;;;17.10;99.90;;;;;;5007233;28;20042;-74
2022/10/03 14:05:17;;;;;;;16.98;3.70;;;17.10;99.90;;;;;;4969671;28;20026;-74
2022/10/03 14:08:03;;;;;;;15.25;3.33;;;17.10;99.90;;;;;;4964543;28;20031;-74
2022/10/03 14:10:47;;;;;;;16.40;3.20;;;17.10;99.90;;;;;;4957747;28;20495;-74
2022/10/03 14:13:24;;;;;;;11.43;3.00;;;17.10;99.90;;;;;;4958625;28;20028;-75
2022/10/03 14:16:19;;;;;;;15.18;3.50;;;17.10;99.90;;;;;;5065989;28;20036;-74
2022/10/03 14:18:56;;;;;;;13.30;3.35;;;17.10;99.90;;;;;;5025019;28;20037;-74
2022/10/03 14:21:27;;;;;;;11.45;3.03;;;17.00;99.90;;;;;;5024736;28;20437;-75
2022/10/03 14:24:04;;;;;;;14.90;3.08;;;17.00;99.90;;;;;;5025409;28;20455;-74
2022/10/03 14:26:41;;;;;;;17.27;3.15;;;17.00;99.90;;;;;;5024693;28;20064;-76
2022/10/03 14:29:17;;;;;;;21.30;3.20;;;17.00;99.90;;;;;;5026600;28;20073;-74